Accueil
METAR-TAF:

METAR-TAF

Aéroports :

Aéroport international de Kunming Changshui

Kunming, Chine

latitude: 25-01N, longitude: 102-41E, altitude: 1892 m

Observation

Le bulletin a été fait il y a 57 minutes, à 22:00 UTC
Vent 12 kt de ouest/sud-ouest
Température 16°C
Humidité 39%
Pression 1014 hPa
Visibilité 10 km ou plus
pas de nuages en-dessous de 1500 mètres et pas de cumulonimbus.

METAR: ZPPP 192200Z 24006MPS CAVOK 16/02 Q1014 NOSIG

Heure: 06:57 (22:57 UTC)

Prévision

Le bulletin a été fait il y a 9 heures et 46 minutes, à 13:11 UTC
Prévision valable du 19 à 18 UTC au 20 à 18 UTC
Vent 14 kt de sud-ouest
Visibilité 10 km ou plus
Quelques nuages à une hauteur de 2600 ft
Evoluant progressivement
du 20 à 02 UTC au 20 à 03 UTC
Vent 23 kt de sud-ouest avec des rafales jusqu'à 33 kt

TAF: ZPPP 191311Z 1918/2018 23007MPS 9999 FEW026 TX28/2008Z TN14/1923Z BECMG 2002/2003 23012G17MPS

Observations et prévisions météorologiques de plus de 4000 aéroports (messages METAR et TAF).

Les stations disponibles sont représentées par des disques jaunes et rouges sur la carte.

Passer la souris dessus pour voir le nom de la station.

Cliquer dessus pour voir les observations et prévisions météorologiques.

Pour changer de carte: cliquez sur les boutons verts avec une croix noire pour zoomer, sur le bouton vert avec un tiret pour effectuer un zoom arrière, ou sur les flèches vertes pour les cartes adjacentes.


METAR-TAF: